createdAt,value
2023-02-13T00:01:42.108Z,167.82
2023-02-13T00:04:12.168Z,171.98
2023-02-13T00:06:41.928Z,182.68
2023-02-13T00:09:11.037Z,174.93
2023-02-13T00:11:40.258Z,176.48
2023-02-13T00:14:09.970Z,171.20
2023-02-13T00:16:39.369Z,173.52
2023-02-13T00:19:08.914Z,175.88
2023-02-13T00:21:39.541Z,178.32
2023-02-13T00:24:09.103Z,174.35
2023-02-13T00:26:41.130Z,171.63
2023-02-13T00:29:10.752Z,175.68
2023-02-13T00:31:42.971Z,177.68
2023-02-13T00:34:12.274Z,185.60
2023-02-13T00:36:41.924Z,178.35
2023-02-13T00:39:13.091Z,186.48
2023-02-13T00:41:42.666Z,188.20
2023-02-13T00:44:12.529Z,183.88
2023-02-13T00:46:44.366Z,182.88
2023-02-13T00:49:13.059Z,187.25
2023-02-13T00:51:43.863Z,186.45
2023-02-13T00:54:13.689Z,165.35
2023-02-13T00:56:44.460Z,167.43
2023-02-13T00:59:14.639Z,175.18
2023-02-13T01:01:49.152Z,162.70
2023-02-13T01:04:18.407Z,161.50
2023-02-13T01:06:46.404Z,159.65
2023-02-13T01:09:15.561Z,162.15
2023-02-13T01:11:45.901Z,163.15
2023-02-13T01:14:15.581Z,163.57
2023-02-13T01:16:45.337Z,162.57
2023-02-13T01:19:14.925Z,160.45
2023-02-13T01:21:44.535Z,156.77
2023-02-13T01:24:14.259Z,163.95
2023-02-13T01:26:43.920Z,159.20
2023-02-13T01:29:15.289Z,165.85
2023-02-13T01:31:45.949Z,169.07
2023-02-13T01:34:15.551Z,168.40
2023-02-13T01:36:45.977Z,161.60
2023-02-13T01:39:14.068Z,165.43
2023-02-13T01:41:45.629Z,166.05
2023-02-13T01:44:47.265Z,168.73
2023-02-13T01:47:25.932Z,165.93
2023-02-13T01:50:07.175Z,168.13
2023-02-13T01:55:08.198Z,168.25
2023-02-13T01:57:38.878Z,158.32
2023-02-13T02:00:13.257Z,160.63
2023-02-13T02:02:52.964Z,168.18
2023-02-13T02:05:30.247Z,181.20
2023-02-13T02:08:01.311Z,179.70
2023-02-13T02:10:33.689Z,179.43
2023-02-13T02:13:07.526Z,172.98
2023-02-13T02:15:39.841Z,184.13
2023-02-13T02:18:16.981Z,177.05
2023-02-13T02:21:27.874Z,184.25
2023-02-13T02:24:41.198Z,181.85
2023-02-13T02:27:58.301Z,171.65
2023-02-13T02:31:05.127Z,172.50
2023-02-13T02:33:49.748Z,170.52
2023-02-13T02:36:36.657Z,173.10
2023-02-13T02:39:16.324Z,179.90
2023-02-13T02:42:01.726Z,180.60
2023-02-13T02:44:39.985Z,175.27
2023-02-13T02:47:40.178Z,172.57
2023-02-13T02:50:37.216Z,169.50
2023-02-13T02:53:24.509Z,170.10
2023-02-13T02:56:12.976Z,169.15
2023-02-13T02:59:05.882Z,173.60
2023-02-13T03:01:54.739Z,172.45
2023-02-13T03:04:46.837Z,171.02
2023-02-13T03:07:20.282Z,168.63
2023-02-13T03:10:12.548Z,174.32
2023-02-13T03:13:07.746Z,174.93
2023-02-13T03:16:01.486Z,168.35
2023-02-13T03:18:54.130Z,168.70
2023-02-13T03:21:52.136Z,175.82
2023-02-13T03:24:31.456Z,174.05
2023-02-13T03:27:07.182Z,167.02
2023-02-13T03:30:04.574Z,165.18
2023-02-13T03:32:40.586Z,169.15
2023-02-13T03:35:42.691Z,169.77
2023-02-13T03:38:19.391Z,164.82
2023-02-13T03:41:14.182Z,170.07
2023-02-13T03:43:56.038Z,174.38
2023-02-13T03:46:27.842Z,171.57
2023-02-13T03:49:15.458Z,171.30
2023-02-13T03:51:51.109Z,173.25
2023-02-13T03:54:42.891Z,172.45
2023-02-13T03:57:34.995Z,166.43
2023-02-13T04:00:09.046Z,174.30
2023-02-13T04:02:58.489Z,174.70
2023-02-13T04:05:30.945Z,169.73
2023-02-13T04:08:00.112Z,177.63
2023-02-13T04:10:33.942Z,173.35
2023-02-13T04:13:14.335Z,172.23
2023-02-13T04:15:49.033Z,179.60
2023-02-13T04:18:22.992Z,183.63
2023-02-13T04:20:54.141Z,181.13
2023-02-13T04:23:22.200Z,181.23
2023-02-13T04:25:56.433Z,171.93
2023-02-13T04:28:26.425Z,168.65
2023-02-13T04:30:54.579Z,184.35
2023-02-13T04:33:24.266Z,178.60
2023-02-13T04:35:53.911Z,169.98
2023-02-13T04:38:23.094Z,166.07
2023-02-13T04:40:52.588Z,184.52
2023-02-13T04:43:20.570Z,172.98
2023-02-13T04:45:53.694Z,171.93
2023-02-13T04:48:21.903Z,161.60
2023-02-13T04:50:51.107Z,174.48
2023-02-13T04:53:20.313Z,164.27
2023-02-13T04:55:48.451Z,164.60
2023-02-13T04:58:18.815Z,157.50
2023-02-13T05:00:46.803Z,169.93
2023-02-13T05:03:16.342Z,164.00
2023-02-13T05:05:45.766Z,154.85
2023-02-13T05:08:16.589Z,157.75
2023-02-13T05:10:45.734Z,157.57
2023-02-13T05:13:18.728Z,160.88
2023-02-13T05:15:48.400Z,162.32
2023-02-13T05:18:17.763Z,165.70
2023-02-13T05:21:07.232Z,167.93
2023-02-13T05:23:36.078Z,161.02
2023-02-13T05:26:06.138Z,166.88
2023-02-13T05:28:53.759Z,165.35
2023-02-13T05:31:24.616Z,169.05
2023-02-13T05:33:56.575Z,176.35
2023-02-13T05:36:25.787Z,172.40
2023-02-13T05:38:53.831Z,171.60
2023-02-13T05:41:24.246Z,181.70
2023-02-13T05:43:53.476Z,173.95
2023-02-13T05:46:22.767Z,171.25
2023-02-13T05:48:51.315Z,176.50
2023-02-13T05:51:22.905Z,173.45
2023-02-13T05:53:52.135Z,172.98
2023-02-13T05:56:21.993Z,157.57
2023-02-13T05:58:53.697Z,173.65
2023-02-13T06:01:23.181Z,170.73
2023-02-13T06:03:52.936Z,169.45
2023-02-13T06:06:22.743Z,162.75
2023-02-13T06:08:51.043Z,171.30
2023-02-13T06:11:21.340Z,169.30
2023-02-13T06:13:49.549Z,170.88
2023-02-13T06:16:18.892Z,163.98
2023-02-13T06:18:48.556Z,168.50
2023-02-13T06:21:17.739Z,167.95
2023-02-13T06:23:47.551Z,168.20
2023-02-13T06:26:17.106Z,165.68
2023-02-13T06:28:45.591Z,165.25
2023-02-13T06:31:13.772Z,167.23
2023-02-13T06:33:42.168Z,174.15
2023-02-13T06:36:11.755Z,171.27
2023-02-13T06:38:40.080Z,170.25
2023-02-13T06:41:09.817Z,178.65
2023-02-13T06:43:40.928Z,174.90
2023-02-13T06:46:10.780Z,163.85
2023-02-13T06:48:41.761Z,164.85
2023-02-13T06:51:11.550Z,166.32
2023-02-13T06:53:41.001Z,166.23
2023-02-13T06:56:12.091Z,163.98
2023-02-13T06:58:41.672Z,174.68
2023-02-13T07:01:11.168Z,169.65
2023-02-13T07:03:40.500Z,173.48
2023-02-13T07:06:09.242Z,167.77
2023-02-13T07:08:39.680Z,165.40
2023-02-13T07:11:08.271Z,164.52
2023-02-13T07:13:37.979Z,167.15
2023-02-13T07:16:07.047Z,170.40
2023-02-13T07:18:38.339Z,169.55
2023-02-13T07:21:08.095Z,166.65
2023-02-13T07:23:37.352Z,169.70
2023-02-13T07:26:06.099Z,171.75
2023-02-13T07:28:34.493Z,166.85
2023-02-13T07:31:07.253Z,163.48
2023-02-13T07:33:37.407Z,153.45
2023-02-13T07:36:08.286Z,158.52
2023-02-13T07:38:37.889Z,158.73
2023-02-13T07:41:06.388Z,166.98
2023-02-13T07:43:35.732Z,154.00
2023-02-13T07:46:06.563Z,149.13
2023-02-13T07:51:06.360Z,156.98
2023-02-13T07:53:37.739Z,161.80
2023-02-13T07:56:08.292Z,155.65
2023-02-13T07:58:38.750Z,166.10
2023-02-13T08:01:13.195Z,162.15
2023-02-13T08:03:43.408Z,161.57
2023-02-13T08:06:11.549Z,158.25
2023-02-13T08:08:42.426Z,157.75
2023-02-13T08:11:51.282Z,159.43
2023-02-13T08:14:19.428Z,152.30
2023-02-13T08:16:51.883Z,156.05
2023-02-13T08:19:20.645Z,149.25
2023-02-13T08:21:48.860Z,148.23
2023-02-13T08:24:17.999Z,145.93
2023-02-13T08:26:47.703Z,148.75
2023-02-13T08:29:17.266Z,152.13
2023-02-13T08:31:46.485Z,157.38
2023-02-13T08:34:17.075Z,161.88
2023-02-13T08:36:45.450Z,158.43
2023-02-13T08:39:16.077Z,154.77
2023-02-13T08:41:45.285Z,149.65
2023-02-13T08:44:13.642Z,141.20
2023-02-13T08:46:43.224Z,152.82
2023-02-13T08:49:12.489Z,158.52
2023-02-13T08:51:43.040Z,152.90
2023-02-13T08:54:12.533Z,166.27
2023-02-13T08:56:42.327Z,164.27
2023-02-13T08:59:12.939Z,166.77
2023-02-13T09:01:42.586Z,170.93
2023-02-13T09:04:12.495Z,171.07
2023-02-13T09:06:41.886Z,170.25
2023-02-13T09:09:12.684Z,167.18
2023-02-13T09:11:42.363Z,168.13
2023-02-13T09:14:11.538Z,160.57
2023-02-13T09:16:39.928Z,162.35
2023-02-13T09:19:09.902Z,151.90
2023-02-13T09:21:38.000Z,145.70
2023-02-13T09:24:11.768Z,146.95
2023-02-13T09:26:40.954Z,143.35
2023-02-13T09:29:10.666Z,140.35
2023-02-13T09:31:38.794Z,145.13
2023-02-13T09:34:08.119Z,142.43
2023-02-13T09:36:37.389Z,143.02
2023-02-13T09:39:07.018Z,150.68
2023-02-13T09:41:42.357Z,151.60
2023-02-13T09:44:34.838Z,144.88
2023-02-13T09:47:09.064Z,149.23
2023-02-13T09:49:44.248Z,150.85
2023-02-13T09:52:13.462Z,156.63
2023-02-13T09:54:43.088Z,151.05
2023-02-13T09:57:24.233Z,168.35
2023-02-13T10:00:03.736Z,165.88
2023-02-13T10:02:48.963Z,169.55
2023-02-13T10:05:35.454Z,172.65
2023-02-13T10:08:17.421Z,168.60
2023-02-13T10:10:54.552Z,170.30
2023-02-13T10:13:47.810Z,162.60
2023-02-13T10:16:20.437Z,167.48
2023-02-13T10:18:55.849Z,171.57
2023-02-13T10:21:32.102Z,170.27
2023-02-13T10:24:07.859Z,174.35
2023-02-13T10:26:46.555Z,161.50
2023-02-13T10:29:39.699Z,165.13
2023-02-13T10:32:13.764Z,149.02
2023-02-13T10:34:47.581Z,151.40
2023-02-13T10:37:19.009Z,151.25
2023-02-13T10:39:52.739Z,173.98
2023-02-13T10:42:30.985Z,173.63
2023-02-13T10:45:20.974Z,172.95
2023-02-13T10:48:08.270Z,173.70
2023-02-13T10:50:49.394Z,169.43
2023-02-13T10:53:27.476Z,165.80
2023-02-13T10:56:21.578Z,169.05
2023-02-13T10:59:08.638Z,167.20
2023-02-13T11:01:46.636Z,166.40
2023-02-13T11:04:20.537Z,164.48
2023-02-13T11:06:56.992Z,168.02
2023-02-13T11:09:28.187Z,169.98
2023-02-13T11:11:57.369Z,151.60
2023-02-13T11:14:29.493Z,155.68
2023-02-13T11:17:03.914Z,174.65
2023-02-13T11:19:38.101Z,173.07
2023-02-13T11:22:09.992Z,171.35
2023-02-13T11:24:41.332Z,159.32
2023-02-13T11:27:14.526Z,172.27
2023-02-13T11:29:54.963Z,172.32
2023-02-13T11:32:29.119Z,173.80
2023-02-13T11:34:59.276Z,179.40
2023-02-13T11:37:30.270Z,177.95
2023-02-13T11:40:02.011Z,180.65
2023-02-13T11:42:33.607Z,181.93
2023-02-13T11:45:07.558Z,177.32
2023-02-13T11:47:44.113Z,185.10
2023-02-13T11:50:34.945Z,186.48
2023-02-13T11:53:10.296Z,188.07
2023-02-13T11:55:42.879Z,176.05
2023-02-13T11:58:27.522Z,171.85
2023-02-13T12:01:30.679Z,163.90
2023-02-13T12:04:08.726Z,167.00
2023-02-13T12:06:40.572Z,172.35
2023-02-13T12:09:15.730Z,170.68
2023-02-13T12:11:51.085Z,168.15
2023-02-13T12:14:26.878Z,168.60
2023-02-13T12:17:01.435Z,161.48
2023-02-13T12:19:39.349Z,163.13
2023-02-13T12:22:32.243Z,164.93
2023-02-13T12:25:37.456Z,162.02
2023-02-13T12:28:14.854Z,138.87
2023-02-13T12:31:15.081Z,158.85
2023-02-13T12:34:37.318Z,161.85
2023-02-13T12:37:27.500Z,156.48
2023-02-13T12:40:23.973Z,158.73
2023-02-13T12:43:15.866Z,161.95
2023-02-13T12:45:54.743Z,167.15
2023-02-13T12:48:40.751Z,168.50
2023-02-13T12:51:30.130Z,91.30
2023-02-13T15:50:02.941Z,151.43
2023-02-13T15:52:35.858Z,146.32
2023-02-13T15:55:06.059Z,158.40
2023-02-13T15:57:34.958Z,141.07
2023-02-13T16:00:05.289Z,150.85
2023-02-13T16:02:47.487Z,147.82
2023-02-13T16:05:38.335Z,157.00
2023-02-13T16:08:32.195Z,155.38
2023-02-13T16:11:29.308Z,147.60
2023-02-13T16:14:10.427Z,142.98
2023-02-13T16:16:48.187Z,126.35
2023-02-13T16:26:57.763Z,123.65
2023-02-13T16:29:28.486Z,124.82
2023-02-13T16:32:14.338Z,127.45
2023-02-13T16:34:44.530Z,126.68
2023-02-13T16:37:33.222Z,132.15
2023-02-13T16:40:34.947Z,127.18
2023-02-13T16:43:46.288Z,125.60
2023-02-13T16:46:26.033Z,124.85
2023-02-13T16:49:17.863Z,112.00
2023-02-13T16:52:03.045Z,109.43
2023-02-13T16:54:37.993Z,110.75
2023-02-13T16:57:21.667Z,126.00
2023-02-13T17:00:08.423Z,118.60
2023-02-13T17:02:41.127Z,117.63
2023-02-13T17:05:23.748Z,119.07
2023-02-13T17:07:57.069Z,119.03
2023-02-13T17:10:28.989Z,125.57
2023-02-13T17:13:00.435Z,137.20
2023-02-13T17:15:32.954Z,147.23
2023-02-13T17:18:02.160Z,133.68
2023-02-13T17:20:35.200Z,128.38
2023-02-13T17:23:08.535Z,117.72
2023-02-13T17:25:39.732Z,118.10
2023-02-13T17:28:14.675Z,117.75
2023-02-13T17:30:46.130Z,139.70
2023-02-13T17:33:21.502Z,135.10
2023-02-13T17:35:52.708Z,135.73
2023-02-13T17:38:23.714Z,135.57
2023-02-13T17:40:53.971Z,137.82
2023-02-13T17:43:25.375Z,133.27
2023-02-13T17:45:56.299Z,135.75
2023-02-13T17:48:25.014Z,140.18
2023-02-13T17:50:54.220Z,127.00
2023-02-13T17:53:29.852Z,130.10
2023-02-13T17:55:57.939Z,132.68
2023-02-13T17:58:27.371Z,132.40
2023-02-13T18:00:57.207Z,137.57
2023-02-13T18:03:27.091Z,129.25
2023-02-13T18:05:55.295Z,130.57
2023-02-13T18:08:26.138Z,138.15
2023-02-13T18:10:55.474Z,141.88
2023-02-13T18:13:23.859Z,139.93
2023-02-13T18:15:53.270Z,139.10
2023-02-13T18:18:21.332Z,139.05
2023-02-13T18:20:58.563Z,141.30
2023-02-13T18:23:28.108Z,128.73
2023-02-13T18:26:08.813Z,133.07
2023-02-13T18:28:38.877Z,133.93
2023-02-13T18:31:10.904Z,135.27
2023-02-13T18:36:09.813Z,140.43
2023-02-13T18:38:40.386Z,138.40
2023-02-13T18:41:10.839Z,137.75
2023-02-13T18:43:40.792Z,139.48
2023-02-13T18:46:11.235Z,140.23
2023-02-13T18:48:40.532Z,136.00
2023-02-13T18:51:09.992Z,131.10
2023-02-13T18:53:40.606Z,131.68
2023-02-13T18:56:10.451Z,131.63
2023-02-13T18:58:40.019Z,133.65
2023-02-13T19:01:10.000Z,131.65
2023-02-13T19:03:39.973Z,130.50
2023-02-13T19:06:13.909Z,129.20
2023-02-13T19:08:43.486Z,135.60
2023-02-13T19:11:21.136Z,124.97
2023-02-13T19:13:49.471Z,127.70
2023-02-13T19:16:21.047Z,130.82
2023-02-13T19:18:54.251Z,117.57
2023-02-13T19:21:25.630Z,133.18
2023-02-13T19:23:57.372Z,126.40
2023-02-13T19:26:28.634Z,133.57
2023-02-13T19:28:59.476Z,115.00
2023-02-13T19:31:30.605Z,131.50
2023-02-13T19:34:00.566Z,132.48
2023-02-13T19:36:30.844Z,128.88
2023-02-13T19:39:04.381Z,116.65
2023-02-13T19:41:33.881Z,119.03
2023-02-13T19:44:01.985Z,127.07
2023-02-13T19:46:34.206Z,123.78
2023-02-13T19:49:04.340Z,129.50
2023-02-13T19:51:36.696Z,123.15
2023-02-13T19:54:11.433Z,118.20
2023-02-13T19:56:42.892Z,126.22
2023-02-13T19:59:13.669Z,127.10
2023-02-13T20:01:44.696Z,108.40
2023-02-13T20:04:14.125Z,128.35
2023-02-13T20:06:43.588Z,129.70
2023-02-13T20:09:14.658Z,114.30
2023-02-13T20:11:46.727Z,120.72
2023-02-13T20:14:15.405Z,117.90
2023-02-13T20:16:47.495Z,116.35
2023-02-13T20:19:16.780Z,108.68
2023-02-13T20:21:47.253Z,111.10
2023-02-13T20:24:17.885Z,104.88
2023-02-13T20:26:47.247Z,108.03
2023-02-13T20:29:15.693Z,110.07
2023-02-13T20:31:45.701Z,111.50
2023-02-13T20:34:15.292Z,110.18
2023-02-13T20:36:44.916Z,114.07
2023-02-13T20:39:14.321Z,103.55
2023-02-13T20:41:48.566Z,105.28
2023-02-13T20:44:19.096Z,105.80
2023-02-13T20:46:49.500Z,101.65
2023-02-13T20:49:22.131Z,104.78
2023-02-13T20:51:50.792Z,108.82
2023-02-13T20:54:19.438Z,106.85
2023-02-13T20:56:50.348Z,104.18
2023-02-13T20:59:18.693Z,104.25
2023-02-13T21:01:49.173Z,105.95
2023-02-13T21:04:19.282Z,104.65
2023-02-13T21:06:48.742Z,103.53
2023-02-13T21:09:17.173Z,103.85
2023-02-13T21:11:47.478Z,110.60
2023-02-13T21:14:18.446Z,102.28
2023-02-13T21:16:48.977Z,101.93
2023-02-13T21:19:21.375Z,103.72
2023-02-13T21:21:50.770Z,107.70
2023-02-13T21:24:21.791Z,102.75
2023-02-13T21:26:54.345Z,100.57
2023-02-13T21:29:23.702Z,112.00
2023-02-13T21:31:54.315Z,113.55
2023-02-13T21:34:22.366Z,116.60
2023-02-13T21:36:51.916Z,115.13
2023-02-13T21:39:21.111Z,113.97
2023-02-13T21:41:50.302Z,108.05
2023-02-13T21:44:19.654Z,110.57
2023-02-13T21:46:49.085Z,96.97
2023-02-13T21:49:19.333Z,111.55
2023-02-13T21:51:48.922Z,106.60
2023-02-13T21:54:18.088Z,103.07
2023-02-13T21:56:47.719Z,109.57
2023-02-13T21:59:17.058Z,114.18
2023-02-13T22:01:48.146Z,115.03
2023-02-13T22:04:18.350Z,117.03
2023-02-13T22:06:52.360Z,115.25
2023-02-13T22:09:22.038Z,118.90
2023-02-13T22:11:52.271Z,120.15
2023-02-13T22:14:20.356Z,127.22
2023-02-13T22:16:51.982Z,127.07
2023-02-13T22:19:22.633Z,122.82
2023-02-13T22:21:52.278Z,123.10
2023-02-13T22:24:21.512Z,129.98
2023-02-13T22:26:51.114Z,125.00
2023-02-13T22:29:22.897Z,117.63
2023-02-13T22:31:50.947Z,115.93
2023-02-13T22:34:21.506Z,123.43
2023-02-13T22:36:51.922Z,120.13
2023-02-13T22:39:21.583Z,120.65
2023-02-13T22:41:50.786Z,124.95
2023-02-13T22:44:19.939Z,124.65
2023-02-13T22:46:48.088Z,124.97
2023-02-13T22:49:17.240Z,128.88
2023-02-13T22:51:46.617Z,131.73
2023-02-13T22:54:14.621Z,127.03
2023-02-13T22:56:42.958Z,115.53
2023-02-13T22:59:13.115Z,113.65
2023-02-13T23:01:41.125Z,126.80
2023-02-13T23:04:10.342Z,113.93
2023-02-13T23:06:40.775Z,123.97
2023-02-13T23:09:10.560Z,131.00
2023-02-13T23:11:57.258Z,130.50
2023-02-13T23:14:26.633Z,130.32
2023-02-13T23:17:13.051Z,131.35
2023-02-13T23:19:42.282Z,128.60
2023-02-13T23:22:13.618Z,128.00
2023-02-13T23:24:43.176Z,131.15
2023-02-13T23:27:14.091Z,122.45
2023-02-13T23:29:42.384Z,120.50
2023-02-13T23:32:11.821Z,125.40
2023-02-13T23:34:39.882Z,125.85
2023-02-13T23:37:10.334Z,124.85
2023-02-13T23:39:39.470Z,123.28
2023-02-13T23:42:09.086Z,131.05
2023-02-13T23:44:38.392Z,131.15
2023-02-13T23:47:09.086Z,128.57
2023-02-13T23:49:37.387Z,120.40
2023-02-13T23:52:05.688Z,119.97
2023-02-13T23:54:34.901Z,117.47
2023-02-13T23:57:04.073Z,119.32
2023-02-13T23:59:34.116Z,121.72
